sensor_id;sensor_type;location;lat;lon;timestamp;P1;durP1;ratioP1;P2;durP2;ratioP2
23506;SDS011;11930;53.076;18.250;2024-02-16T00:01:37;35.13;;;20.90;;
23506;SDS011;11930;53.076;18.250;2024-02-16T00:04:03;36.97;;;20.00;;
23506;SDS011;11930;53.076;18.250;2024-02-16T00:06:29;34.37;;;19.13;;
23506;SDS011;11930;53.076;18.250;2024-02-16T00:08:56;33.87;;;19.07;;
23506;SDS011;11930;53.076;18.250;2024-02-16T00:14:48;33.83;;;18.63;;
23506;SDS011;11930;53.076;18.250;2024-02-16T00:17:14;32.57;;;18.33;;
23506;SDS011;11930;53.076;18.250;2024-02-16T00:19:40;33.10;;;19.00;;
23506;SDS011;11930;53.076;18.250;2024-02-16T00:22:07;34.90;;;20.30;;
23506;SDS011;11930;53.076;18.250;2024-02-16T00:24:33;37.90;;;19.60;;
23506;SDS011;11930;53.076;18.250;2024-02-16T00:27:00;32.93;;;19.07;;
23506;SDS011;11930;53.076;18.250;2024-02-16T00:29:27;32.50;;;19.80;;
23506;SDS011;11930;53.076;18.250;2024-02-16T00:31:53;35.03;;;20.33;;
23506;SDS011;11930;53.076;18.250;2024-02-16T00:34:19;35.10;;;20.53;;
23506;SDS011;11930;53.076;18.250;2024-02-16T00:36:45;35.00;;;20.63;;
23506;SDS011;11930;53.076;18.250;2024-02-16T00:39:11;35.80;;;20.40;;
23506;SDS011;11930;53.076;18.250;2024-02-16T00:41:38;32.90;;;19.67;;
23506;SDS011;11930;53.076;18.250;2024-02-16T00:44:04;34.53;;;20.40;;
23506;SDS011;11930;53.076;18.250;2024-02-16T00:46:30;33.73;;;19.07;;
23506;SDS011;11930;53.076;18.250;2024-02-16T00:48:57;32.10;;;19.63;;
23506;SDS011;11930;53.076;18.250;2024-02-16T00:51:23;36.27;;;19.63;;
23506;SDS011;11930;53.076;18.250;2024-02-16T00:53:51;34.60;;;19.13;;
23506;SDS011;11930;53.076;18.250;2024-02-16T00:56:18;35.40;;;19.00;;
23506;SDS011;11930;53.076;18.250;2024-02-16T00:58:44;34.17;;;19.17;;
23506;SDS011;11930;53.076;18.250;2024-02-16T01:01:10;32.47;;;19.27;;
23506;SDS011;11930;53.076;18.250;2024-02-16T01:03:38;33.80;;;20.23;;
23506;SDS011;11930;53.076;18.250;2024-02-16T01:06:05;34.57;;;19.77;;
23506;SDS011;11930;53.076;18.250;2024-02-16T01:08:31;33.13;;;19.43;;
23506;SDS011;11930;53.076;18.250;2024-02-16T01:10:58;35.13;;;19.03;;
23506;SDS011;11930;53.076;18.250;2024-02-16T01:13:24;32.73;;;18.40;;
23506;SDS011;11930;53.076;18.250;2024-02-16T01:15:51;33.20;;;20.20;;
23506;SDS011;11930;53.076;18.250;2024-02-16T01:18:17;35.93;;;19.20;;
23506;SDS011;11930;53.076;18.250;2024-02-16T01:20:43;34.97;;;19.20;;
23506;SDS011;11930;53.076;18.250;2024-02-16T01:23:09;36.43;;;19.20;;
23506;SDS011;11930;53.076;18.250;2024-02-16T01:25:36;36.03;;;21.30;;
23506;SDS011;11930;53.076;18.250;2024-02-16T01:28:02;36.40;;;19.03;;
23506;SDS011;11930;53.076;18.250;2024-02-16T01:30:28;37.20;;;21.60;;
23506;SDS011;11930;53.076;18.250;2024-02-16T01:32:54;35.83;;;20.07;;
23506;SDS011;11930;53.076;18.250;2024-02-16T01:35:21;35.07;;;20.17;;
23506;SDS011;11930;53.076;18.250;2024-02-16T01:37:47;36.27;;;20.47;;
23506;SDS011;11930;53.076;18.250;2024-02-16T01:40:14;38.43;;;21.43;;
23506;SDS011;11930;53.076;18.250;2024-02-16T01:42:43;34.40;;;20.20;;
23506;SDS011;11930;53.076;18.250;2024-02-16T01:45:13;36.33;;;21.27;;
23506;SDS011;11930;53.076;18.250;2024-02-16T01:47:39;35.93;;;21.87;;
23506;SDS011;11930;53.076;18.250;2024-02-16T01:50:08;34.17;;;20.87;;
23506;SDS011;11930;53.076;18.250;2024-02-16T01:52:36;38.77;;;21.83;;
23506;SDS011;11930;53.076;18.250;2024-02-16T01:55:03;33.13;;;19.73;;
23506;SDS011;11930;53.076;18.250;2024-02-16T01:57:31;35.57;;;20.03;;
23506;SDS011;11930;53.076;18.250;2024-02-16T01:59:58;34.77;;;20.73;;
23506;SDS011;11930;53.076;18.250;2024-02-16T02:02:25;33.97;;;20.70;;
23506;SDS011;11930;53.076;18.250;2024-02-16T02:04:52;37.77;;;21.20;;
23506;SDS011;11930;53.076;18.250;2024-02-16T02:07:18;36.67;;;20.53;;
23506;SDS011;11930;53.076;18.250;2024-02-16T02:09:45;37.00;;;21.60;;
23506;SDS011;11930;53.076;18.250;2024-02-16T02:12:11;32.37;;;19.60;;
23506;SDS011;11930;53.076;18.250;2024-02-16T02:14:37;31.70;;;19.53;;
23506;SDS011;11930;53.076;18.250;2024-02-16T02:17:03;36.37;;;20.80;;
23506;SDS011;11930;53.076;18.250;2024-02-16T02:19:30;30.83;;;19.40;;
23506;SDS011;11930;53.076;18.250;2024-02-16T02:21:56;33.07;;;19.87;;
23506;SDS011;11930;53.076;18.250;2024-02-16T02:24:22;33.57;;;20.87;;
23506;SDS011;11930;53.076;18.250;2024-02-16T02:26:48;35.13;;;20.33;;
23506;SDS011;11930;53.076;18.250;2024-02-16T02:29:15;32.57;;;19.63;;
23506;SDS011;11930;53.076;18.250;2024-02-16T02:31:41;29.07;;;18.47;;
23506;SDS011;11930;53.076;18.250;2024-02-16T02:34:07;33.10;;;19.30;;
23506;SDS011;11930;53.076;18.250;2024-02-16T02:36:33;32.77;;;19.47;;
23506;SDS011;11930;53.076;18.250;2024-02-16T02:39:00;31.57;;;19.13;;
23506;SDS011;11930;53.076;18.250;2024-02-16T02:41:26;34.53;;;19.57;;
23506;SDS011;11930;53.076;18.250;2024-02-16T02:43:53;33.90;;;19.27;;
23506;SDS011;11930;53.076;18.250;2024-02-16T02:46:19;32.17;;;19.27;;
23506;SDS011;11930;53.076;18.250;2024-02-16T02:48:45;34.03;;;19.10;;
23506;SDS011;11930;53.076;18.250;2024-02-16T02:51:11;33.20;;;19.30;;
23506;SDS011;11930;53.076;18.250;2024-02-16T02:53:38;34.33;;;19.87;;
23506;SDS011;11930;53.076;18.250;2024-02-16T02:56:04;31.43;;;18.57;;
23506;SDS011;11930;53.076;18.250;2024-02-16T02:58:31;33.20;;;18.93;;
23506;SDS011;11930;53.076;18.250;2024-02-16T03:00:57;32.70;;;18.97;;
23506;SDS011;11930;53.076;18.250;2024-02-16T03:03:23;31.37;;;18.47;;
23506;SDS011;11930;53.076;18.250;2024-02-16T03:05:49;32.27;;;19.10;;
23506;SDS011;11930;53.076;18.250;2024-02-16T03:08:16;33.83;;;19.60;;
23506;SDS011;11930;53.076;18.250;2024-02-16T03:10:42;32.57;;;19.47;;
23506;SDS011;11930;53.076;18.250;2024-02-16T03:13:10;34.17;;;19.57;;
23506;SDS011;11930;53.076;18.250;2024-02-16T03:15:38;33.23;;;19.53;;
23506;SDS011;11930;53.076;18.250;2024-02-16T03:18:05;33.20;;;18.80;;
23506;SDS011;11930;53.076;18.250;2024-02-16T03:20:34;33.97;;;19.00;;
23506;SDS011;11930;53.076;18.250;2024-02-16T03:23:01;36.43;;;20.00;;
23506;SDS011;11930;53.076;18.250;2024-02-16T03:25:28;34.33;;;18.97;;
23506;SDS011;11930;53.076;18.250;2024-02-16T03:27:55;32.90;;;19.67;;
23506;SDS011;11930;53.076;18.250;2024-02-16T03:30:22;34.87;;;19.80;;
23506;SDS011;11930;53.076;18.250;2024-02-16T03:32:51;32.50;;;19.20;;
23506;SDS011;11930;53.076;18.250;2024-02-16T03:35:18;30.53;;;18.07;;
23506;SDS011;11930;53.076;18.250;2024-02-16T03:37:44;31.70;;;19.00;;
23506;SDS011;11930;53.076;18.250;2024-02-16T03:40:10;31.53;;;19.47;;
23506;SDS011;11930;53.076;18.250;2024-02-16T03:42:38;33.20;;;20.13;;
23506;SDS011;11930;53.076;18.250;2024-02-16T03:45:06;34.53;;;20.73;;
23506;SDS011;11930;53.076;18.250;2024-02-16T03:47:33;33.17;;;19.37;;
23506;SDS011;11930;53.076;18.250;2024-02-16T03:49:59;37.80;;;19.53;;
23506;SDS011;11930;53.076;18.250;2024-02-16T03:52:25;33.53;;;19.60;;
23506;SDS011;11930;53.076;18.250;2024-02-16T03:54:51;32.60;;;19.93;;
23506;SDS011;11930;53.076;18.250;2024-02-16T03:57:17;37.30;;;21.33;;
23506;SDS011;11930;53.076;18.250;2024-02-16T03:59:43;30.10;;;19.07;;
23506;SDS011;11930;53.076;18.250;2024-02-16T04:02:10;31.37;;;19.33;;
23506;SDS011;11930;53.076;18.250;2024-02-16T04:04:39;31.07;;;18.67;;
23506;SDS011;11930;53.076;18.250;2024-02-16T04:07:05;29.97;;;19.20;;
23506;SDS011;11930;53.076;18.250;2024-02-16T04:09:34;34.17;;;21.53;;
23506;SDS011;11930;53.076;18.250;2024-02-16T04:12:01;35.60;;;20.30;;
23506;SDS011;11930;53.076;18.250;2024-02-16T04:14:28;37.20;;;20.70;;
23506;SDS011;11930;53.076;18.250;2024-02-16T04:16:55;33.77;;;19.67;;
23506;SDS011;11930;53.076;18.250;2024-02-16T04:19:24;36.63;;;21.33;;
23506;SDS011;11930;53.076;18.250;2024-02-16T04:21:53;32.63;;;19.50;;
23506;SDS011;11930;53.076;18.250;2024-02-16T04:24:20;39.30;;;20.23;;
23506;SDS011;11930;53.076;18.250;2024-02-16T04:26:46;34.20;;;19.87;;
23506;SDS011;11930;53.076;18.250;2024-02-16T04:29:12;33.90;;;19.77;;
23506;SDS011;11930;53.076;18.250;2024-02-16T04:31:39;35.07;;;20.03;;
23506;SDS011;11930;53.076;18.250;2024-02-16T04:34:10;34.07;;;19.43;;
23506;SDS011;11930;53.076;18.250;2024-02-16T04:36:36;32.57;;;20.20;;
23506;SDS011;11930;53.076;18.250;2024-02-16T04:39:02;31.93;;;18.73;;
23506;SDS011;11930;53.076;18.250;2024-02-16T04:41:28;33.60;;;20.10;;
23506;SDS011;11930;53.076;18.250;2024-02-16T04:43:55;34.87;;;20.23;;
23506;SDS011;11930;53.076;18.250;2024-02-16T04:46:21;30.70;;;18.90;;
23506;SDS011;11930;53.076;18.250;2024-02-16T04:48:47;34.37;;;19.83;;
23506;SDS011;11930;53.076;18.250;2024-02-16T04:51:13;35.17;;;19.83;;
23506;SDS011;11930;53.076;18.250;2024-02-16T04:53:40;31.90;;;19.50;;
23506;SDS011;11930;53.076;18.250;2024-02-16T04:56:06;30.03;;;18.30;;
23506;SDS011;11930;53.076;18.250;2024-02-16T04:58:32;34.37;;;19.40;;
23506;SDS011;11930;53.076;18.250;2024-02-16T05:00:59;30.40;;;17.97;;
23506;SDS011;11930;53.076;18.250;2024-02-16T05:03:26;32.37;;;19.37;;
23506;SDS011;11930;53.076;18.250;2024-02-16T05:05:52;31.83;;;19.53;;
23506;SDS011;11930;53.076;18.250;2024-02-16T05:08:18;32.40;;;18.97;;
23506;SDS011;11930;53.076;18.250;2024-02-16T05:10:48;32.00;;;19.07;;
23506;SDS011;11930;53.076;18.250;2024-02-16T05:13:14;30.17;;;19.13;;
23506;SDS011;11930;53.076;18.250;2024-02-16T05:15:40;30.97;;;18.87;;
23506;SDS011;11930;53.076;18.250;2024-02-16T05:18:06;34.23;;;18.30;;
23506;SDS011;11930;53.076;18.250;2024-02-16T05:20:33;32.10;;;19.77;;
23506;SDS011;11930;53.076;18.250;2024-02-16T05:22:59;32.67;;;18.87;;
23506;SDS011;11930;53.076;18.250;2024-02-16T05:25:25;33.60;;;19.23;;
23506;SDS011;11930;53.076;18.250;2024-02-16T05:27:51;32.00;;;18.90;;
23506;SDS011;11930;53.076;18.250;2024-02-16T05:30:17;29.40;;;17.87;;
23506;SDS011;11930;53.076;18.250;2024-02-16T05:32:44;32.60;;;18.03;;
23506;SDS011;11930;53.076;18.250;2024-02-16T05:35:10;32.37;;;18.47;;
23506;SDS011;11930;53.076;18.250;2024-02-16T05:37:37;30.63;;;18.33;;
23506;SDS011;11930;53.076;18.250;2024-02-16T05:40:12;30.83;;;18.70;;
23506;SDS011;11930;53.076;18.250;2024-02-16T05:42:47;29.63;;;18.13;;
23506;SDS011;11930;53.076;18.250;2024-02-16T05:45:14;30.43;;;18.20;;
23506;SDS011;11930;53.076;18.250;2024-02-16T05:47:46;30.60;;;18.90;;
23506;SDS011;11930;53.076;18.250;2024-02-16T05:50:13;29.17;;;17.77;;
23506;SDS011;11930;53.076;18.250;2024-02-16T05:52:41;33.33;;;19.17;;
23506;SDS011;11930;53.076;18.250;2024-02-16T05:55:08;32.50;;;19.27;;
23506;SDS011;11930;53.076;18.250;2024-02-16T05:57:36;31.70;;;19.07;;
23506;SDS011;11930;53.076;18.250;2024-02-16T06:00:04;30.63;;;18.50;;
23506;SDS011;11930;53.076;18.250;2024-02-16T06:02:31;33.67;;;19.03;;
23506;SDS011;11930;53.076;18.250;2024-02-16T06:05:01;29.53;;;17.53;;
23506;SDS011;11930;53.076;18.250;2024-02-16T06:07:28;31.63;;;18.03;;
23506;SDS011;11930;53.076;18.250;2024-02-16T06:09:55;30.40;;;18.13;;
23506;SDS011;11930;53.076;18.250;2024-02-16T06:12:22;29.67;;;16.97;;
23506;SDS011;11930;53.076;18.250;2024-02-16T06:14:49;28.67;;;17.47;;
23506;SDS011;11930;53.076;18.250;2024-02-16T06:17:15;27.53;;;18.03;;
23506;SDS011;11930;53.076;18.250;2024-02-16T06:19:42;30.97;;;17.90;;
23506;SDS011;11930;53.076;18.250;2024-02-16T06:22:09;28.03;;;16.30;;
23506;SDS011;11930;53.076;18.250;2024-02-16T06:24:35;27.07;;;16.83;;
23506;SDS011;11930;53.076;18.250;2024-02-16T06:27:02;29.47;;;17.07;;
23506;SDS011;11930;53.076;18.250;2024-02-16T06:29:30;29.33;;;18.37;;
23506;SDS011;11930;53.076;18.250;2024-02-16T06:31:56;28.80;;;16.20;;
23506;SDS011;11930;53.076;18.250;2024-02-16T06:34:22;30.00;;;17.57;;
23506;SDS011;11930;53.076;18.250;2024-02-16T06:36:49;26.50;;;16.37;;
23506;SDS011;11930;53.076;18.250;2024-02-16T06:39:15;27.17;;;16.57;;
23506;SDS011;11930;53.076;18.250;2024-02-16T06:41:42;29.43;;;16.80;;
23506;SDS011;11930;53.076;18.250;2024-02-16T06:44:09;28.77;;;16.27;;
23506;SDS011;11930;53.076;18.250;2024-02-16T06:46:36;28.70;;;17.53;;
23506;SDS011;11930;53.076;18.250;2024-02-16T06:49:02;27.57;;;16.93;;
23506;SDS011;11930;53.076;18.250;2024-02-16T06:51:29;31.33;;;16.63;;
23506;SDS011;11930;53.076;18.250;2024-02-16T06:53:55;29.03;;;16.67;;
23506;SDS011;11930;53.076;18.250;2024-02-16T06:56:21;26.93;;;16.17;;
23506;SDS011;11930;53.076;18.250;2024-02-16T06:58:48;26.90;;;16.40;;
23506;SDS011;11930;53.076;18.250;2024-02-16T07:01:15;28.23;;;17.07;;
23506;SDS011;11930;53.076;18.250;2024-02-16T07:03:44;27.70;;;17.37;;
23506;SDS011;11930;53.076;18.250;2024-02-16T07:06:11;28.03;;;16.43;;
23506;SDS011;11930;53.076;18.250;2024-02-16T07:08:39;27.17;;;15.77;;
23506;SDS011;11930;53.076;18.250;2024-02-16T07:11:06;27.53;;;16.03;;
23506;SDS011;11930;53.076;18.250;2024-02-16T07:13:33;28.63;;;16.97;;
23506;SDS011;11930;53.076;18.250;2024-02-16T07:16:00;34.87;;;17.43;;
23506;SDS011;11930;53.076;18.250;2024-02-16T07:18:26;28.07;;;17.67;;
23506;SDS011;11930;53.076;18.250;2024-02-16T07:20:52;30.10;;;17.07;;
23506;SDS011;11930;53.076;18.250;2024-02-16T07:23:18;30.20;;;17.03;;
23506;SDS011;11930;53.076;18.250;2024-02-16T07:25:44;30.43;;;17.90;;
23506;SDS011;11930;53.076;18.250;2024-02-16T07:28:11;28.80;;;16.20;;
23506;SDS011;11930;53.076;18.250;2024-02-16T07:30:38;30.37;;;17.07;;
23506;SDS011;11930;53.076;18.250;2024-02-16T07:33:04;28.43;;;17.37;;
23506;SDS011;11930;53.076;18.250;2024-02-16T07:35:35;27.33;;;16.40;;
23506;SDS011;11930;53.076;18.250;2024-02-16T07:38:02;28.90;;;16.60;;
23506;SDS011;11930;53.076;18.250;2024-02-16T07:40:28;26.00;;;15.67;;
23506;SDS011;11930;53.076;18.250;2024-02-16T07:42:55;26.20;;;15.67;;
23506;SDS011;11930;53.076;18.250;2024-02-16T07:45:21;27.40;;;16.60;;
23506;SDS011;11930;53.076;18.250;2024-02-16T07:47:47;27.47;;;16.73;;
23506;SDS011;11930;53.076;18.250;2024-02-16T07:50:17;30.23;;;16.00;;
23506;SDS011;11930;53.076;18.250;2024-02-16T07:52:45;28.30;;;16.13;;
23506;SDS011;11930;53.076;18.250;2024-02-16T07:55:11;26.70;;;16.63;;
23506;SDS011;11930;53.076;18.250;2024-02-16T07:57:37;26.50;;;16.83;;
23506;SDS011;11930;53.076;18.250;2024-02-16T08:00:04;30.13;;;16.90;;
23506;SDS011;11930;53.076;18.250;2024-02-16T08:02:32;26.87;;;15.67;;
23506;SDS011;11930;53.076;18.250;2024-02-16T08:04:58;24.73;;;15.57;;
23506;SDS011;11930;53.076;18.250;2024-02-16T08:07:25;24.10;;;15.60;;
23506;SDS011;11930;53.076;18.250;2024-02-16T08:09:51;25.23;;;14.00;;
23506;SDS011;11930;53.076;18.250;2024-02-16T08:12:17;25.27;;;14.90;;
23506;SDS011;11930;53.076;18.250;2024-02-16T08:14:43;23.07;;;14.47;;
23506;SDS011;11930;53.076;18.250;2024-02-16T08:17:10;22.63;;;14.60;;
23506;SDS011;11930;53.076;18.250;2024-02-16T08:19:37;25.57;;;14.47;;
23506;SDS011;11930;53.076;18.250;2024-02-16T08:22:06;23.20;;;14.23;;
23506;SDS011;11930;53.076;18.250;2024-02-16T08:24:34;24.23;;;15.07;;
23506;SDS011;11930;53.076;18.250;2024-02-16T08:27:01;23.93;;;14.37;;
23506;SDS011;11930;53.076;18.250;2024-02-16T08:29:27;23.93;;;14.37;;
23506;SDS011;11930;53.076;18.250;2024-02-16T08:31:54;24.17;;;14.23;;
23506;SDS011;11930;53.076;18.250;2024-02-16T08:34:20;24.10;;;14.43;;
23506;SDS011;11930;53.076;18.250;2024-02-16T08:36:48;22.67;;;14.17;;
23506;SDS011;11930;53.076;18.250;2024-02-16T08:39:15;23.40;;;14.20;;
23506;SDS011;11930;53.076;18.250;2024-02-16T08:41:42;23.40;;;14.43;;
23506;SDS011;11930;53.076;18.250;2024-02-16T08:44:14;25.17;;;14.77;;
23506;SDS011;11930;53.076;18.250;2024-02-16T08:46:41;21.40;;;14.23;;
23506;SDS011;11930;53.076;18.250;2024-02-16T08:49:07;20.87;;;13.73;;
23506;SDS011;11930;53.076;18.250;2024-02-16T08:51:35;23.63;;;14.20;;
23506;SDS011;11930;53.076;18.250;2024-02-16T08:54:01;23.40;;;14.50;;
23506;SDS011;11930;53.076;18.250;2024-02-16T08:56:27;20.03;;;13.53;;
23506;SDS011;11930;53.076;18.250;2024-02-16T08:58:54;22.20;;;14.00;;
23506;SDS011;11930;53.076;18.250;2024-02-16T09:01:32;21.73;;;14.40;;
23506;SDS011;11930;53.076;18.250;2024-02-16T09:03:59;21.13;;;13.50;;
23506;SDS011;11930;53.076;18.250;2024-02-16T09:06:26;23.70;;;14.57;;
23506;SDS011;11930;53.076;18.250;2024-02-16T09:08:53;22.27;;;13.50;;
23506;SDS011;11930;53.076;18.250;2024-02-16T09:11:20;22.57;;;13.23;;
23506;SDS011;11930;53.076;18.250;2024-02-16T09:13:47;21.23;;;13.40;;
23506;SDS011;11930;53.076;18.250;2024-02-16T09:16:13;21.20;;;13.27;;
23506;SDS011;11930;53.076;18.250;2024-02-16T09:18:39;19.03;;;13.13;;
23506;SDS011;11930;53.076;18.250;2024-02-16T09:21:06;20.17;;;13.13;;
23506;SDS011;11930;53.076;18.250;2024-02-16T09:23:32;20.33;;;12.97;;
23506;SDS011;11930;53.076;18.250;2024-02-16T09:26:00;18.57;;;13.00;;
23506;SDS011;11930;53.076;18.250;2024-02-16T09:28:29;22.07;;;13.57;;
23506;SDS011;11930;53.076;18.250;2024-02-16T09:30:56;20.53;;;13.30;;
23506;SDS011;11930;53.076;18.250;2024-02-16T09:33:23;19.97;;;12.93;;
23506;SDS011;11930;53.076;18.250;2024-02-16T09:35:50;21.53;;;13.37;;
23506;SDS011;11930;53.076;18.250;2024-02-16T09:38:16;21.00;;;12.17;;
23506;SDS011;11930;53.076;18.250;2024-02-16T09:40:43;18.83;;;13.03;;
23506;SDS011;11930;53.076;18.250;2024-02-16T09:43:10;19.70;;;13.20;;
23506;SDS011;11930;53.076;18.250;2024-02-16T09:45:47;18.80;;;12.93;;
23506;SDS011;11930;53.076;18.250;2024-02-16T09:48:17;19.70;;;12.60;;
23506;SDS011;11930;53.076;18.250;2024-02-16T09:50:45;21.13;;;13.80;;
23506;SDS011;11930;53.076;18.250;2024-02-16T09:53:11;22.60;;;14.27;;
23506;SDS011;11930;53.076;18.250;2024-02-16T09:55:38;21.00;;;13.97;;
23506;SDS011;11930;53.076;18.250;2024-02-16T09:58:05;19.07;;;12.30;;
23506;SDS011;11930;53.076;18.250;2024-02-16T10:00:31;20.50;;;12.70;;
23506;SDS011;11930;53.076;18.250;2024-02-16T10:02:57;18.53;;;12.30;;
23506;SDS011;11930;53.076;18.250;2024-02-16T10:05:24;18.00;;;12.07;;
23506;SDS011;11930;53.076;18.250;2024-02-16T10:07:50;20.20;;;11.63;;
23506;SDS011;11930;53.076;18.250;2024-02-16T10:10:27;18.40;;;11.50;;
23506;SDS011;11930;53.076;18.250;2024-02-16T10:13:02;19.63;;;11.85;;
23506;SDS011;11930;53.076;18.250;2024-02-16T10:15:30;18.92;;;11.45;;
23506;SDS011;11930;53.076;18.250;2024-02-16T10:18:00;16.17;;;11.18;;
23506;SDS011;11930;53.076;18.250;2024-02-16T10:20:34;18.10;;;11.73;;
23506;SDS011;11930;53.076;18.250;2024-02-16T10:23:07;16.60;;;10.77;;
23506;SDS011;11930;53.076;18.250;2024-02-16T10:25:36;19.77;;;11.50;;
23506;SDS011;11930;53.076;18.250;2024-02-16T10:28:04;18.13;;;11.33;;
23506;SDS011;11930;53.076;18.250;2024-02-16T10:30:36;19.43;;;11.97;;
23506;SDS011;11930;53.076;18.250;2024-02-16T10:33:04;18.48;;;12.10;;
23506;SDS011;11930;53.076;18.250;2024-02-16T10:35:35;18.23;;;11.57;;
23506;SDS011;11930;53.076;18.250;2024-02-16T10:38:02;19.17;;;11.67;;
23506;SDS011;11930;53.076;18.250;2024-02-16T10:40:37;18.30;;;11.63;;
23506;SDS011;11930;53.076;18.250;2024-02-16T10:43:08;21.27;;;11.30;;
23506;SDS011;11930;53.076;18.250;2024-02-16T10:45:36;20.03;;;12.00;;
23506;SDS011;11930;53.076;18.250;2024-02-16T10:48:03;21.23;;;12.87;;
23506;SDS011;11930;53.076;18.250;2024-02-16T10:50:34;19.50;;;11.80;;
23506;SDS011;11930;53.076;18.250;2024-02-16T10:53:04;20.13;;;11.80;;
23506;SDS011;11930;53.076;18.250;2024-02-16T10:55:37;20.70;;;12.20;;
23506;SDS011;11930;53.076;18.250;2024-02-16T10:58:03;18.53;;;11.80;;
23506;SDS011;11930;53.076;18.250;2024-02-16T11:00:33;19.67;;;11.32;;
23506;SDS011;11930;53.076;18.250;2024-02-16T11:03:01;18.50;;;11.67;;
23506;SDS011;11930;53.076;18.250;2024-02-16T11:05:32;16.95;;;11.15;;
23506;SDS011;11930;53.076;18.250;2024-02-16T11:08:03;21.07;;;11.83;;
23506;SDS011;11930;53.076;18.250;2024-02-16T11:10:30;18.73;;;11.73;;
23506;SDS011;11930;53.076;18.250;2024-02-16T11:13:03;19.07;;;12.00;;
23506;SDS011;11930;53.076;18.250;2024-02-16T11:15:33;20.27;;;12.13;;
23506;SDS011;11930;53.076;18.250;2024-02-16T11:18:02;18.03;;;11.07;;
23506;SDS011;11930;53.076;18.250;2024-02-16T11:20:36;18.63;;;11.93;;
23506;SDS011;11930;53.076;18.250;2024-02-16T11:23:08;19.70;;;13.30;;
23506;SDS011;11930;53.076;18.250;2024-02-16T11:25:35;22.27;;;12.37;;
23506;SDS011;11930;53.076;18.250;2024-02-16T11:28:02;20.37;;;13.03;;
23506;SDS011;11930;53.076;18.250;2024-02-16T11:30:34;21.17;;;12.97;;
23506;SDS011;11930;53.076;18.250;2024-02-16T11:33:01;18.93;;;12.50;;
23506;SDS011;11930;53.076;18.250;2024-02-16T11:35:28;18.27;;;11.80;;
23506;SDS011;11930;53.076;18.250;2024-02-16T11:37:55;19.47;;;12.10;;
23506;SDS011;11930;53.076;18.250;2024-02-16T11:40:22;20.70;;;12.60;;
23506;SDS011;11930;53.076;18.250;2024-02-16T11:42:48;20.83;;;12.67;;
23506;SDS011;11930;53.076;18.250;2024-02-16T11:45:14;26.43;;;13.80;;
23506;SDS011;11930;53.076;18.250;2024-02-16T11:47:41;19.13;;;12.53;;
23506;SDS011;11930;53.076;18.250;2024-02-16T11:50:09;20.50;;;12.43;;
23506;SDS011;11930;53.076;18.250;2024-02-16T11:52:40;21.13;;;13.53;;
23506;SDS011;11930;53.076;18.250;2024-02-16T11:55:12;18.57;;;12.13;;
23506;SDS011;11930;53.076;18.250;2024-02-16T11:57:40;24.20;;;16.03;;
23506;SDS011;11930;53.076;18.250;2024-02-16T12:00:07;20.07;;;13.00;;
23506;SDS011;11930;53.076;18.250;2024-02-16T12:02:36;18.80;;;12.07;;
23506;SDS011;11930;53.076;18.250;2024-02-16T12:05:02;19.27;;;12.43;;
23506;SDS011;11930;53.076;18.250;2024-02-16T12:07:30;19.87;;;13.07;;
23506;SDS011;11930;53.076;18.250;2024-02-16T12:09:59;24.03;;;13.40;;
23506;SDS011;11930;53.076;18.250;2024-02-16T12:12:27;21.03;;;12.97;;
23506;SDS011;11930;53.076;18.250;2024-02-16T12:14:53;20.93;;;12.97;;
23506;SDS011;11930;53.076;18.250;2024-02-16T12:17:20;20.50;;;13.10;;
23506;SDS011;11930;53.076;18.250;2024-02-16T12:19:46;22.37;;;14.20;;
23506;SDS011;11930;53.076;18.250;2024-02-16T12:22:16;19.73;;;12.83;;
23506;SDS011;11930;53.076;18.250;2024-02-16T12:24:44;26.60;;;15.47;;
23506;SDS011;11930;53.076;18.250;2024-02-16T12:27:11;20.30;;;12.83;;
23506;SDS011;11930;53.076;18.250;2024-02-16T12:29:38;27.70;;;14.83;;
23506;SDS011;11930;53.076;18.250;2024-02-16T12:32:05;31.85;;;20.35;;
23506;SDS011;11930;53.076;18.250;2024-02-16T12:34:32;24.13;;;13.80;;
23506;SDS011;11930;53.076;18.250;2024-02-16T12:36:58;20.13;;;12.33;;
23506;SDS011;11930;53.076;18.250;2024-02-16T12:39:25;19.90;;;12.50;;
23506;SDS011;11930;53.076;18.250;2024-02-16T12:41:51;20.75;;;12.60;;
23506;SDS011;11930;53.076;18.250;2024-02-16T12:44:17;21.23;;;12.70;;
23506;SDS011;11930;53.076;18.250;2024-02-16T12:46:43;18.65;;;12.43;;
23506;SDS011;11930;53.076;18.250;2024-02-16T12:49:10;22.73;;;14.10;;
23506;SDS011;11930;53.076;18.250;2024-02-16T12:51:36;20.53;;;13.50;;
23506;SDS011;11930;53.076;18.250;2024-02-16T12:54:02;20.90;;;12.47;;
23506;SDS011;11930;53.076;18.250;2024-02-16T12:56:31;21.52;;;12.90;;
23506;SDS011;11930;53.076;18.250;2024-02-16T12:58:58;24.02;;;12.02;;
23506;SDS011;11930;53.076;18.250;2024-02-16T13:01:25;18.67;;;11.90;;
23506;SDS011;11930;53.076;18.250;2024-02-16T13:03:52;17.37;;;10.97;;
23506;SDS011;11930;53.076;18.250;2024-02-16T13:06:18;21.70;;;13.63;;
23506;SDS011;11930;53.076;18.250;2024-02-16T13:08:44;22.07;;;13.57;;
23506;SDS011;11930;53.076;18.250;2024-02-16T13:11:10;18.23;;;11.70;;
23506;SDS011;11930;53.076;18.250;2024-02-16T13:13:38;16.92;;;10.60;;
23506;SDS011;11930;53.076;18.250;2024-02-16T13:16:04;20.07;;;13.90;;
23506;SDS011;11930;53.076;18.250;2024-02-16T13:18:31;18.83;;;12.97;;
23506;SDS011;11930;53.076;18.250;2024-02-16T13:20:57;18.77;;;11.82;;
23506;SDS011;11930;53.076;18.250;2024-02-16T13:23:23;16.07;;;11.10;;
23506;SDS011;11930;53.076;18.250;2024-02-16T13:25:49;16.87;;;10.70;;
23506;SDS011;11930;53.076;18.250;2024-02-16T13:28:16;18.38;;;10.52;;
23506;SDS011;11930;53.076;18.250;2024-02-16T13:30:56;16.33;;;10.40;;
23506;SDS011;11930;53.076;18.250;2024-02-16T13:33:23;14.67;;;10.10;;
23506;SDS011;11930;53.076;18.250;2024-02-16T13:35:51;15.60;;;10.03;;
23506;SDS011;11930;53.076;18.250;2024-02-16T13:38:17;17.00;;;10.47;;
23506;SDS011;11930;53.076;18.250;2024-02-16T13:40:44;17.08;;;10.05;;
23506;SDS011;11930;53.076;18.250;2024-02-16T13:43:10;17.03;;;10.17;;
23506;SDS011;11930;53.076;18.250;2024-02-16T13:45:47;15.17;;;10.67;;
23506;SDS011;11930;53.076;18.250;2024-02-16T13:48:16;18.10;;;10.60;;
23506;SDS011;11930;53.076;18.250;2024-02-16T13:50:45;25.50;;;15.37;;
23506;SDS011;11930;53.076;18.250;2024-02-16T13:53:13;24.43;;;14.20;;
23506;SDS011;11930;53.076;18.250;2024-02-16T13:55:41;18.90;;;11.43;;
23506;SDS011;11930;53.076;18.250;2024-02-16T13:58:10;18.03;;;11.83;;
23506;SDS011;11930;53.076;18.250;2024-02-16T14:00:36;18.10;;;11.76;;
23506;SDS011;11930;53.076;18.250;2024-02-16T14:03:04;19.90;;;12.20;;
23506;SDS011;11930;53.076;18.250;2024-02-16T14:05:37;131.67;;;69.27;;
23506;SDS011;11930;53.076;18.250;2024-02-16T14:08:04;52.73;;;27.43;;
23506;SDS011;11930;53.076;18.250;2024-02-16T14:10:32;51.17;;;25.47;;
23506;SDS011;11930;53.076;18.250;2024-02-16T14:12:58;33.63;;;19.57;;